Time;durP1;ratioP1;P1;durP2;ratioP2;P2;SDS_P1;SDS_P2;PMS_P1;PMS_P2;Temp;Humidity;BMP_temperature;BMP_pressure;BME280_temperature;BME280_humidity;BME280_pressure;Samples;Min_cycle;Max_cycle;Signal;HPM_P1;HPM_P2
2023/07/27 00:01:09;;;;;;;6.38;1.83;;;;;;;27.82;43.63;96211.28;5015112;28;20465;-30
2023/07/27 00:03:34;;;;;;;8.20;1.80;;;;;;;27.89;43.15;96212.63;5015308;28;20036;-29
2023/07/27 00:06:00;;;;;;;3.30;1.30;;;;;;;27.95;42.82;96204.84;5015360;28;20020;-29
2023/07/27 00:08:25;;;;;;;4.68;1.67;;;;;;;27.88;42.51;96205.56;5014860;28;20041;-29
2023/07/27 00:10:51;;;;;;;6.20;1.70;;;;;;;27.87;42.20;96209.66;5015153;28;20496;-29
2023/07/27 00:13:18;;;;;;;5.35;1.88;;;;;;;27.88;42.06;96211.16;5015026;28;20370;-31
2023/07/27 00:15:43;;;;;;;5.50;2.10;;;;;;;27.93;41.71;96204.69;5015131;28;20104;-29
2023/07/27 00:18:09;;;;;;;6.68;1.65;;;;;;;27.90;41.73;96205.78;5014827;28;20105;-29
2023/07/27 00:20:34;;;;;;;11.15;2.08;;;;;;;27.94;41.37;96202.66;5014626;28;20022;-29
2023/07/27 00:23:00;;;;;;;8.18;1.20;;;;;;;27.89;41.06;96193.13;5015343;28;20022;-29
2023/07/27 00:25:25;;;;;;;4.20;1.38;;;;;;;27.95;41.04;96193.72;5014900;28;20038;-29
2023/07/27 00:27:51;;;;;;;4.32;1.30;;;;;;;27.95;40.78;96196.50;5014891;28;20025;-29
2023/07/27 00:30:16;;;;;;;4.95;1.20;;;;;;;27.92;40.69;96200.41;5014858;28;20032;-31
2023/07/27 00:32:41;;;;;;;5.18;1.02;;;;;;;27.91;40.09;96196.13;5014640;28;20017;-29
2023/07/27 00:35:07;;;;;;;4.38;1.05;;;;;;;27.94;40.40;96197.81;5014442;28;20026;-29
2023/07/27 00:37:33;;;;;;;5.03;1.10;;;;;;;27.92;40.36;96188.50;5014616;28;20022;-28
2023/07/27 00:39:58;;;;;;;3.85;1.20;;;;;;;27.82;40.32;96193.81;5014737;28;20481;-29
2023/07/27 00:42:23;;;;;;;4.50;1.00;;;;;;;27.91;40.21;96192.59;5014373;28;20072;-29
2023/07/27 00:44:49;;;;;;;6.35;1.55;;;;;;;27.75;40.14;96188.94;5014602;28;20030;-29
2023/07/27 00:47:14;;;;;;;6.15;1.42;;;;;;;27.77;39.92;96191.94;5013919;28;20045;-29
2023/07/27 00:49:40;;;;;;;4.72;1.13;;;;;;;27.90;39.59;96191.84;5012992;28;20085;-29
2023/07/27 00:52:07;;;;;;;4.90;1.10;;;;;;;27.76;39.93;96187.66;5014525;28;20026;-29
2023/07/27 00:54:34;;;;;;;3.47;1.30;;;;;;;27.72;39.78;96199.16;5014085;28;20025;-28
2023/07/27 00:57:00;;;;;;;3.63;1.20;;;;;;;27.84;39.25;96194.03;5014280;28;20024;-30
2023/07/27 00:59:26;;;;;;;4.30;1.17;;;;;;;27.87;39.14;96192.94;5014384;28;20018;-30
2023/07/27 01:01:52;;;;;;;5.38;1.40;;;;;;;27.89;39.29;96201.50;5021387;28;20469;-29
2023/07/27 01:04:17;;;;;;;2.95;1.20;;;;;;;27.85;39.47;96195.50;5014427;28;20026;-29
2023/07/27 01:06:43;;;;;;;6.25;1.25;;;;;;;28.02;39.09;96184.66;5014035;28;20025;-30
2023/07/27 01:09:08;;;;;;;4.30;1.10;;;;;;;27.83;39.32;96192.53;5014166;28;20056;-29
2023/07/27 01:11:44;;;;;;;6.18;1.60;;;;;;;27.83;39.09;96195.31;5014014;28;20034;-29
2023/07/27 01:14:14;;;;;;;5.95;2.15;;;;;;;27.88;38.75;96197.97;5014153;28;20028;-29
2023/07/27 01:16:54;;;;;;;7.40;2.03;;;;;;;27.63;39.17;96196.84;5013505;28;20104;-29
2023/07/27 01:19:51;;;;;;;5.88;1.50;;;;;;;27.87;39.46;96192.94;5014397;28;20477;-29
2023/07/27 01:22:32;;;;;;;6.07;1.30;;;;;;;27.70;39.39;96195.41;5013928;28;20065;-29
2023/07/27 01:25:22;;;;;;;5.80;1.20;;;;;;;27.71;39.46;96192.06;5013476;28;20034;-29
2023/07/27 01:27:50;;;;;;;3.22;1.23;;;;;;;27.69;40.17;96182.78;5014147;28;20026;-29
2023/07/27 01:30:24;;;;;;;6.00;1.33;;;;;;;27.77;39.86;96189.16;5013512;28;20474;-29
2023/07/27 01:33:05;;;;;;;5.78;1.40;;;;;;;27.76;39.59;96179.31;5013744;28;20385;-30
2023/07/27 01:35:55;;;;;;;2.63;1.23;;;;;;;27.70;39.58;96184.25;5013659;28;20022;-31
2023/07/27 01:38:22;;;;;;;4.50;1.10;;;;;;;27.75;39.50;96175.03;5013328;28;20477;-29
2023/07/27 01:40:50;;;;;;;4.07;1.20;;;;;;;27.53;39.63;96182.66;5013564;28;20036;-29
2023/07/27 01:43:17;;;;;;;5.00;1.55;;;;;;;27.66;39.64;96181.84;5013429;28;20021;-29
2023/07/27 01:45:44;;;;;;;3.55;1.35;;;;;;;27.49;40.06;96171.09;5013605;28;20053;-29
2023/07/27 01:48:11;;;;;;;5.07;1.50;;;;;;;27.69;39.82;96166.06;5013427;28;20033;-29
2023/07/27 01:50:38;;;;;;;6.00;1.60;;;;;;;27.62;39.77;96172.34;5013460;28;20106;-29
2023/07/27 01:53:04;;;;;;;7.78;1.65;;;;;;;27.58;39.47;96169.13;5013624;28;20026;-29
2023/07/27 01:55:31;;;;;;;5.13;1.27;;;;;;;27.54;39.77;96175.78;5013318;28;20110;-29
2023/07/27 01:57:59;;;;;;;3.80;1.42;;;;;;;27.59;40.04;96174.16;5013293;28;20032;-30
2023/07/27 02:00:27;;;;;;;6.93;1.45;;;;;;;27.63;39.80;96171.78;5013547;28;20548;-30
2023/07/27 02:02:53;;;;;;;4.90;1.17;;;;;;;27.64;39.59;96175.31;5013710;28;20022;-30
2023/07/27 02:05:21;;;;;;;10.13;1.40;;;;;;;27.48;40.26;96174.44;5020216;28;20030;-29
2023/07/27 02:07:47;;;;;;;4.38;1.00;;;;;;;27.46;40.30;96166.63;5013173;28;20381;-29
2023/07/27 02:10:15;;;;;;;4.97;1.20;;;;;;;27.42;40.34;96166.22;5011948;28;20026;-30
2023/07/27 02:12:49;;;;;;;4.00;1.20;;;;;;;27.43;40.24;96184.44;5013296;28;20041;-30
2023/07/27 02:15:20;;;;;;;5.28;1.30;;;;;;;27.49;39.60;96187.81;5013211;28;20018;-30
2023/07/27 02:17:49;;;;;;;2.03;1.02;;;;;;;27.43;39.87;96197.63;5013142;28;20018;-30
2023/07/27 02:20:19;;;;;;;3.08;1.00;;;;;;;27.57;40.09;96203.88;5020239;28;20105;-30
2023/07/27 02:22:46;;;;;;;6.05;1.25;;;;;;;27.48;40.01;96203.03;5013892;28;20017;-29
2023/07/27 02:25:12;;;;;;;4.32;1.50;;;;;;;27.45;40.12;96206.16;5012949;28;20026;-29
2023/07/27 02:27:37;;;;;;;3.17;1.20;;;;;;;27.57;39.59;96204.59;5013225;28;20549;-29
2023/07/27 02:30:03;;;;;;;6.68;1.48;;;;;;;27.53;40.00;96213.28;5016078;28;20159;-29
2023/07/27 02:32:30;;;;;;;5.57;1.30;;;;;;;27.51;40.28;96209.56;5016784;28;20101;-29
2023/07/27 02:34:56;;;;;;;5.97;1.30;;;;;;;27.46;40.40;96222.31;5016897;28;20029;-28
2023/07/27 02:37:21;;;;;;;6.85;1.55;;;;;;;27.45;40.30;96226.38;5016569;28;20025;-29
2023/07/27 02:39:47;;;;;;;4.35;1.27;;;;;;;27.24;40.72;96228.44;5016852;28;20108;-29
2023/07/27 02:42:12;;;;;;;4.13;1.30;;;;;;;27.50;40.01;96231.09;5016300;28;20477;-29
2023/07/27 02:44:38;;;;;;;4.90;1.08;;;;;;;27.48;40.25;96228.09;5016629;28;20025;-30
2023/07/27 02:47:03;;;;;;;2.97;1.20;;;;;;;27.43;40.26;96240.13;5016179;28;20508;-29
2023/07/27 02:49:29;;;;;;;5.10;1.50;;;;;;;27.45;40.23;96231.97;5016451;28;20473;-30
2023/07/27 02:51:54;;;;;;;5.28;1.38;;;;;;;27.42;39.96;96224.72;5016499;28;20057;-29
2023/07/27 02:54:19;;;;;;;5.28;1.38;;;;;;;27.46;40.31;96230.66;5016102;28;20381;-29
2023/07/27 02:56:45;;;;;;;6.75;1.25;;;;;;;27.48;40.65;96230.88;5016348;28;20465;-29
2023/07/27 02:59:10;;;;;;;4.20;1.55;;;;;;;27.44;40.10;96241.63;5016503;28;20469;-31
2023/07/27 03:01:36;;;;;;;3.08;1.20;;;;;;;27.32;40.35;96251.56;5014872;28;20022;-30
2023/07/27 03:04:02;;;;;;;5.75;1.20;;;;;;;27.44;40.70;96258.34;5019737;28;20136;-29
2023/07/27 03:06:28;;;;;;;7.72;1.90;;;;;;;27.35;41.08;96258.78;5019817;28;20024;-30
2023/07/27 03:08:53;;;;;;;3.78;1.23;;;;;;;27.54;40.89;96256.56;5014918;28;20026;-29
2023/07/27 03:11:19;;;;;;;5.95;1.52;;;;;;;27.35;40.98;96260.84;5016254;28;20013;-29
2023/07/27 03:13:44;;;;;;;7.28;1.52;;;;;;;27.34;41.20;96260.09;5015989;28;20541;-29
2023/07/27 03:16:10;;;;;;;7.47;1.52;;;;;;;27.25;41.39;96260.56;5016038;28;20393;-29
2023/07/27 03:18:35;;;;;;;6.15;1.30;;;;;;;27.26;41.57;96267.63;5016130;28;20025;-29
2023/07/27 03:21:05;;;;;;;7.53;1.95;;;;;;;27.26;41.42;96256.50;5016062;28;20033;-30
2023/07/27 03:23:30;;;;;;;7.05;1.73;;;;;;;27.31;41.72;96258.41;5015912;28;20022;-29
2023/07/27 03:25:56;;;;;;;5.28;1.92;;;;;;;27.27;41.74;96265.59;5016142;28;20105;-30
2023/07/27 03:28:21;;;;;;;4.95;1.38;;;;;;;27.35;41.49;96266.41;5015544;28;20095;-29
2023/07/27 03:30:48;;;;;;;4.90;1.50;;;;;;;27.27;41.70;96271.16;5015923;28;20022;-30
2023/07/27 03:33:14;;;;;;;7.03;1.73;;;;;;;27.24;42.23;96270.19;5015587;28;20026;-29
2023/07/27 03:35:39;;;;;;;5.60;1.77;;;;;;;27.36;42.07;96277.00;5015729;28;20045;-29
2023/07/27 03:38:05;;;;;;;3.53;1.20;;;;;;;27.20;42.24;96278.13;5015517;28;20021;-29
2023/07/27 03:40:30;;;;;;;4.95;1.30;;;;;;;27.24;42.09;96270.19;5021572;28;20147;-29
2023/07/27 03:42:56;;;;;;;6.03;1.50;;;;;;;27.28;42.60;96273.41;5014058;28;20034;-30
2023/07/27 03:45:21;;;;;;;3.67;1.40;;;;;;;27.09;42.39;96272.81;5015473;28;20033;-29
2023/07/27 03:47:47;;;;;;;5.45;1.90;;;;;;;27.26;42.05;96275.97;5015154;28;20173;-29
2023/07/27 03:50:13;;;;;;;4.32;1.40;;;;;;;27.21;42.25;96270.53;5015544;28;20034;-28
2023/07/27 03:52:38;;;;;;;4.45;1.52;;;;;;;27.27;42.37;96271.16;5015417;28;20029;-29
2023/07/27 03:55:04;;;;;;;5.80;1.70;;;;;;;27.22;42.64;96272.78;5015261;28;20052;-29
2023/07/27 03:57:30;;;;;;;7.40;2.50;;;;;;;27.17;42.63;96270.88;5014297;28;20512;-30
2023/07/27 03:59:56;;;;;;;6.85;1.80;;;;;;;27.17;42.81;96273.66;5015403;28;20029;-29
2023/07/27 04:02:26;;;;;;;4.13;1.40;;;;;;;27.14;43.03;96283.09;5015289;28;20021;-29
2023/07/27 04:04:51;;;;;;;6.13;1.70;;;;;;;27.18;42.88;96280.72;5022511;28;20095;-29
2023/07/27 04:07:20;;;;;;;4.28;1.80;;;;;;;27.15;42.91;96290.91;5015337;28;20022;-29
2023/07/27 04:09:46;;;;;;;6.15;2.47;;;;;;;27.17;42.81;96284.81;5014601;28;20022;-29
2023/07/27 04:12:11;;;;;;;4.18;2.25;;;;;;;27.14;42.95;96289.41;5015360;28;20355;-29
2023/07/27 04:14:37;;;;;;;6.28;2.60;;;;;;;27.19;42.84;96301.72;5013599;28;20025;-29
2023/07/27 04:17:04;;;;;;;3.38;1.60;;;;;;;27.14;43.40;96297.00;5014721;28;20120;-29
2023/07/27 04:19:29;;;;;;;5.05;1.80;;;;;;;27.13;43.35;96292.72;5014588;28;20108;-29
2023/07/27 04:21:54;;;;;;;4.18;1.35;;;;;;;27.27;42.75;96293.44;5014592;28;20050;-29
2023/07/27 04:24:20;;;;;;;3.70;1.50;;;;;;;27.27;43.08;96296.97;5014544;28;20544;-29
2023/07/27 04:26:45;;;;;;;4.05;1.50;;;;;;;27.15;43.27;96299.25;5014859;28;20105;-29
2023/07/27 04:29:11;;;;;;;4.07;1.40;;;;;;;27.16;43.32;96302.78;5014720;28;20362;-29
2023/07/27 04:31:36;;;;;;;3.22;1.38;;;;;;;27.23;43.35;96307.69;5014807;28;20516;-29
2023/07/27 04:34:02;;;;;;;4.63;1.27;;;;;;;27.21;43.20;96301.91;5014899;28;20032;-30
2023/07/27 04:36:27;;;;;;;6.13;1.73;;;;;;;27.28;42.87;96297.72;5014714;28;20018;-28
2023/07/27 04:38:52;;;;;;;4.20;1.35;;;;;;;27.39;42.68;96305.81;5014445;28;20108;-29
2023/07/27 04:41:18;;;;;;;4.68;1.48;;;;;;;27.30;43.03;96297.94;5014516;28;20530;-29
2023/07/27 04:43:43;;;;;;;4.45;1.40;;;;;;;27.15;43.47;96306.88;5014510;28;20028;-30
2023/07/27 04:46:09;;;;;;;3.70;1.67;;;;;;;27.20;43.38;96305.97;5014541;28;20026;-31
2023/07/27 04:48:34;;;;;;;2.75;1.30;;;;;;;27.14;43.85;96310.94;5014396;28;20030;-29
2023/07/27 04:51:00;;;;;;;3.15;1.25;;;;;;;27.14;43.83;96310.94;5013914;28;20029;-29
2023/07/27 04:53:25;;;;;;;4.78;1.58;;;;;;;27.29;43.13;96302.75;5013583;28;20029;-29
2023/07/27 04:55:50;;;;;;;2.45;1.42;;;;;;;27.33;43.12;96314.28;5014214;28;20033;-29
2023/07/27 04:58:16;;;;;;;5.43;1.65;;;;;;;27.37;42.87;96306.34;5014164;28;20056;-29
2023/07/27 05:00:41;;;;;;;5.60;1.42;;;;;;;27.33;42.94;96303.13;5013947;28;20088;-28
2023/07/27 05:03:07;;;;;;;3.55;1.42;;;;;;;27.16;43.79;96300.00;5014024;28;20021;-29
2023/07/27 05:05:32;;;;;;;3.33;1.38;;;;;;;27.17;43.35;96305.03;5021352;28;20104;-29
2023/07/27 05:07:58;;;;;;;3.58;1.20;;;;;;;27.22;43.43;96308.97;5013866;28;20017;-29
2023/07/27 05:10:23;;;;;;;4.15;1.67;;;;;;;27.31;43.88;96302.97;5014019;28;20084;-29
2023/07/27 05:12:49;;;;;;;3.88;1.60;;;;;;;27.33;43.18;96300.34;5014079;28;20530;-29
2023/07/27 05:15:15;;;;;;;3.45;1.40;;;;;;;27.20;43.44;96308.75;5013960;28;20473;-29
2023/07/27 05:17:41;;;;;;;2.55;1.30;;;;;;;27.13;43.69;96301.09;5013948;28;20052;-29
2023/07/27 05:20:06;;;;;;;3.90;1.27;;;;;;;27.34;43.66;96304.63;5013810;28;20477;-29
2023/07/27 05:22:32;;;;;;;2.78;1.30;;;;;;;27.33;43.86;96311.50;5012439;28;20478;-29
2023/07/27 05:24:57;;;;;;;2.40;1.35;;;;;;;27.14;44.35;96308.16;5012215;28;20037;-29
2023/07/27 05:27:23;;;;;;;3.33;1.90;;;;;;;27.23;44.24;96313.25;5013928;28;20014;-29
2023/07/27 05:29:48;;;;;;;4.43;1.58;;;;;;;27.39;44.05;96314.91;5013853;28;20092;-29
2023/07/27 05:32:14;;;;;;;3.92;1.40;;;;;;;27.24;43.76;96306.41;5013849;28;20026;-29
2023/07/27 05:34:39;;;;;;;5.15;1.75;;;;;;;27.42;43.80;96316.63;5013664;28;20512;-30
2023/07/27 05:37:05;;;;;;;4.50;1.25;;;;;;;27.32;44.15;96318.38;5013535;28;20374;-29
2023/07/27 05:39:30;;;;;;;2.65;1.50;;;;;;;27.46;43.63;96317.00;5020634;28;20033;-29
2023/07/27 05:41:56;;;;;;;2.53;1.40;;;;;;;27.40;43.64;96324.75;5013465;28;20029;-29
2023/07/27 05:44:21;;;;;;;8.18;2.67;;;;;;;27.33;44.04;96319.84;5013424;28;20026;-30
2023/07/27 05:46:51;;;;;;;4.65;1.67;;;;;;;27.47;43.63;96324.09;5013710;28;20048;-29
2023/07/27 05:49:16;;;;;;;3.33;1.40;;;;;;;27.45;43.82;96325.91;5013295;28;20021;-30
2023/07/27 05:51:42;;;;;;;3.70;1.63;;;;;;;27.49;43.90;96324.28;5013344;28;20022;-29
2023/07/27 05:54:07;;;;;;;3.65;1.27;;;;;;;27.42;44.58;96327.00;5013364;28;20057;-28
2023/07/27 05:56:33;;;;;;;2.72;1.30;;;;;;;27.42;44.88;96330.53;5013282;28;20018;-31
2023/07/27 05:58:58;;;;;;;4.93;1.23;;;;;;;27.40;44.72;96335.16;5011994;28;20029;-30
2023/07/27 06:01:24;;;;;;;3.35;1.33;;;;;;;27.57;44.70;96343.88;5013551;28;20022;-29
2023/07/27 06:03:49;;;;;;;5.10;1.67;;;;;;;27.54;44.63;96344.97;5016119;28;20026;-29
2023/07/27 06:06:24;;;;;;;3.45;1.52;;;;;;;27.53;44.71;96349.03;5017368;28;20020;-29
2023/07/27 06:08:49;;;;;;;7.03;1.60;;;;;;;27.54;44.69;96347.75;5016857;28;20049;-29
2023/07/27 06:11:15;;;;;;;2.97;1.50;;;;;;;27.53;44.48;96349.03;5017307;28;20466;-29
2023/07/27 06:13:41;;;;;;;4.95;1.40;;;;;;;27.61;44.37;96355.44;5017329;28;20468;-29
2023/07/27 06:16:06;;;;;;;4.78;2.00;;;;;;;27.62;44.25;96347.84;5023485;28;20022;-30
2023/07/27 06:18:32;;;;;;;4.18;1.52;;;;;;;27.56;44.35;96347.22;5017538;28;20108;-29
2023/07/27 06:20:57;;;;;;;4.05;2.05;;;;;;;27.58;44.43;96350.94;5015866;28;20025;-29
2023/07/27 06:23:23;;;;;;;2.60;1.35;;;;;;;27.65;44.26;96355.13;5017245;28;20048;-29
2023/07/27 06:25:49;;;;;;;3.28;1.40;;;;;;;27.58;44.52;96359.31;5017166;28;20037;-29
2023/07/27 06:28:15;;;;;;;4.35;1.75;;;;;;;27.65;44.57;96367.00;5017332;28;20075;-29
2023/07/27 06:30:41;;;;;;;2.08;1.40;;;;;;;27.68;44.52;96377.06;5016981;28;20509;-28
2023/07/27 06:33:06;;;;;;;5.53;1.38;;;;;;;27.71;44.08;96375.22;5016852;28;20473;-29
2023/07/27 06:35:33;;;;;;;2.50;1.30;;;;;;;27.61;44.17;96376.97;5016763;28;20024;-28
2023/07/27 06:37:59;;;;;;;2.50;1.35;;;;;;;27.52;44.20;96376.13;5016552;28;20036;-29
2023/07/27 06:40:25;;;;;;;4.20;1.67;;;;;;;27.62;44.31;96376.44;5016807;28;20029;-29
2023/07/27 06:42:50;;;;;;;4.05;1.50;;;;;;;27.65;44.20;96371.84;5016565;28;20465;-30
2023/07/27 06:45:16;;;;;;;4.28;1.65;;;;;;;27.60;44.30;96370.66;5016728;28;20029;-29
2023/07/27 06:47:41;;;;;;;6.40;1.58;;;;;;;27.53;44.59;96372.06;5015410;28;20049;-30
2023/07/27 06:50:07;;;;;;;8.52;1.80;;;;;;;27.73;44.51;96370.59;5016553;28;20041;-29
2023/07/27 06:52:33;;;;;;;6.63;1.70;;;;;;;27.67;44.91;96372.78;5016624;28;20026;-29
2023/07/27 06:54:58;;;;;;;5.60;1.52;;;;;;;27.77;44.54;96375.84;5016560;28;20497;-29
2023/07/27 06:57:27;;;;;;;3.22;1.50;;;;;;;27.82;44.28;96378.50;5015119;28;20018;-29
2023/07/27 06:59:53;;;;;;;12.00;2.22;;;;;;;27.69;44.90;96380.59;5023304;28;20084;-30
2023/07/27 07:02:18;;;;;;;17.60;2.33;;;;;;;27.62;44.88;96378.47;5016647;28;20026;-29
2023/07/27 07:04:45;;;;;;;5.43;1.45;;;;;;;27.82;44.58;96375.69;5016795;28;20025;-30
2023/07/27 07:07:11;;;;;;;4.90;1.85;;;;;;;27.89;44.52;96374.28;5016307;28;20029;-29
2023/07/27 07:09:37;;;;;;;7.45;1.90;;;;;;;27.75;45.44;96373.59;5016202;28;20022;-29
2023/07/27 07:12:04;;;;;;;8.65;1.77;;;;;;;27.90;45.04;96378.56;5023082;28;20034;-29
2023/07/27 07:14:30;;;;;;;4.25;1.60;;;;;;;27.69;45.52;96383.41;5015549;28;20022;-28
2023/07/27 07:16:56;;;;;;;4.25;1.55;;;;;;;27.71;45.76;96381.53;5015992;28;20040;-30
2023/07/27 07:19:21;;;;;;;3.92;1.30;;;;;;;27.89;45.04;96385.44;5015766;28;20480;-29
2023/07/27 07:21:47;;;;;;;5.68;1.60;;;;;;;27.81;44.90;96390.19;5016173;28;20032;-29
2023/07/27 07:24:12;;;;;;;3.83;1.33;;;;;;;28.06;44.80;96391.34;5015966;28;20057;-28
2023/07/27 07:26:38;;;;;;;4.70;1.50;;;;;;;27.93;45.15;96397.00;5015864;28;20417;-29
2023/07/27 07:29:03;;;;;;;6.55;1.80;;;;;;;28.04;45.13;96395.97;5016012;28;20432;-29
2023/07/27 07:31:30;;;;;;;4.63;1.58;;;;;;;28.03;45.14;96392.44;5015663;28;20054;-30
2023/07/27 07:33:56;;;;;;;3.17;1.30;;;;;;;28.04;44.89;96390.41;5016170;28;20433;-28
2023/07/27 07:36:22;;;;;;;4.57;1.80;;;;;;;27.98;45.22;96392.56;5015711;28;20069;-29
2023/07/27 07:38:47;;;;;;;5.30;1.77;;;;;;;27.99;45.34;96394.06;5015991;28;20143;-29
2023/07/27 07:41:13;;;;;;;5.47;1.42;;;;;;;28.08;45.30;96390.78;5015375;28;20022;-28
2023/07/27 07:43:39;;;;;;;6.35;1.60;;;;;;;28.01;45.10;96397.06;5015624;28;20033;-28
2023/07/27 07:46:09;;;;;;;4.60;1.60;;;;;;;28.09;45.33;96395.06;5021893;28;20028;-29
2023/07/27 07:48:34;;;;;;;2.15;1.20;;;;;;;28.21;45.21;96399.84;5014046;28;20413;-28
2023/07/27 07:50:59;;;;;;;3.83;1.38;;;;;;;28.07;45.28;96400.44;5015451;28;20033;-28
2023/07/27 07:53:25;;;;;;;8.35;1.63;;;;;;;28.06;45.42;96391.34;5015169;28;20032;-29
2023/07/27 07:55:50;;;;;;;5.50;2.05;;;;;;;28.24;44.56;96398.03;5015279;28;20013;-29
2023/07/27 07:58:16;;;;;;;2.55;1.50;;;;;;;28.12;44.76;96397.53;5014219;28;20101;-28
2023/07/27 08:00:42;;;;;;;2.40;1.30;;;;;;;28.30;44.46;96400.69;5015133;28;20466;-28
2023/07/27 08:03:08;;;;;;;3.17;1.17;;;;;;;28.29;44.75;96402.72;5015152;28;20018;-29
2023/07/27 08:05:33;;;;;;;5.57;1.52;;;;;;;28.33;44.21;96405.16;5014575;28;20108;-30
2023/07/27 08:08:00;;;;;;;3.92;1.90;;;;;;;28.40;44.68;96401.69;5015134;28;20026;-29
2023/07/27 08:10:25;;;;;;;3.58;1.50;;;;;;;28.30;44.79;96406.25;5013735;28;20366;-29
2023/07/27 08:12:52;;;;;;;4.65;1.60;;;;;;;28.32;44.09;96403.66;5015014;28;20028;-29
2023/07/27 08:15:17;;;;;;;4.72;1.70;;;;;;;28.46;44.05;96405.81;5015118;28;20188;-28
2023/07/27 08:17:43;;;;;;;3.90;1.30;;;;;;;28.32;44.47;96406.44;5014984;28;20454;-28
2023/07/27 08:20:09;;;;;;;2.45;1.02;;;;;;;28.30;44.06;96409.06;5015147;28;20529;-29
2023/07/27 08:22:35;;;;;;;3.08;1.50;;;;;;;28.22;44.05;96411.75;5014756;28;20041;-29
2023/07/27 08:25:00;;;;;;;4.13;1.52;;;;;;;28.61;43.54;96407.97;5014977;28;20466;-30
2023/07/27 08:27:26;;;;;;;2.95;1.33;;;;;;;28.59;42.67;96404.97;5012527;28;20049;-28
2023/07/27 08:29:52;;;;;;;3.33;1.42;;;;;;;28.51;43.04;96404.19;5014680;28;20482;-29
2023/07/27 08:32:17;;;;;;;2.95;1.60;;;;;;;28.58;43.24;96411.84;5014749;28;20428;-29
2023/07/27 08:34:43;;;;;;;2.85;1.20;;;;;;;28.59;42.28;96416.13;5014591;28;20075;-29
2023/07/27 08:37:08;;;;;;;3.33;1.33;;;;;;;28.49;42.65;96415.13;5014382;28;20500;-29
2023/07/27 08:39:34;;;;;;;3.38;1.40;;;;;;;28.58;42.90;96420.22;5014363;28;20373;-29
2023/07/27 08:42:00;;;;;;;2.90;1.33;;;;;;;28.75;42.93;96414.19;5014299;28;20065;-29
2023/07/27 08:44:26;;;;;;;3.67;1.60;;;;;;;28.66;43.23;96415.44;5014404;28;20033;-29
2023/07/27 08:46:52;;;;;;;2.40;1.35;;;;;;;28.67;43.13;96411.38;5014171;28;20060;-28
2023/07/27 08:49:18;;;;;;;2.97;1.10;;;;;;;28.73;43.01;96417.53;5014232;28;20032;-28
2023/07/27 08:51:44;;;;;;;4.75;1.45;;;;;;;28.54;41.92;96425.41;5014421;28;20040;-30
2023/07/27 08:54:10;;;;;;;3.33;1.02;;;;;;;28.65;42.21;96422.31;5014073;28;20022;-29
2023/07/27 08:56:35;;;;;;;2.45;1.30;;;;;;;28.54;41.56;96419.84;5014316;28;20028;-28
2023/07/27 08:59:01;;;;;;;3.00;1.23;;;;;;;28.70;41.50;96432.56;5014102;28;20029;-29
2023/07/27 09:01:27;;;;;;;4.63;1.30;;;;;;;28.75;41.87;96428.91;5014374;28;20041;-29
2023/07/27 09:03:52;;;;;;;2.05;1.20;;;;;;;28.74;42.59;96426.66;5014524;28;20017;-28
2023/07/27 09:06:36;;;;;;;1.65;1.13;;;;;;;28.78;41.82;96435.44;5014085;28;20018;-29
2023/07/27 09:09:15;;;;;;;1.80;1.40;;;;;;;28.97;39.98;96427.56;5021317;28;20018;-29
2023/07/27 09:11:42;;;;;;;2.35;1.08;;;;;;;28.83;40.35;96442.91;5014081;28;20021;-29
2023/07/27 09:14:08;;;;;;;3.65;1.20;;;;;;;28.94;38.92;96434.25;5013888;28;20529;-29
2023/07/27 09:16:34;;;;;;;4.10;1.40;;;;;;;28.79;39.44;96439.75;5013912;28;20018;-29
2023/07/27 09:19:01;;;;;;;2.25;1.10;;;;;;;28.82;39.74;96431.00;5012312;28;20030;-29
2023/07/27 09:21:27;;;;;;;2.30;1.40;;;;;;;28.73;39.55;96425.91;5012367;28;20105;-28
2023/07/27 09:23:57;;;;;;;2.20;1.15;;;;;;;28.84;40.73;96442.38;5013878;28;20034;-28
2023/07/27 09:26:26;;;;;;;4.10;1.20;;;;;;;28.90;40.07;96437.41;5013796;28;20030;-29
2023/07/27 09:28:53;;;;;;;2.53;1.02;;;;;;;28.97;40.09;96440.78;5013911;28;20112;-29
2023/07/27 09:31:18;;;;;;;1.77;1.02;;;;;;;29.07;39.49;96439.72;5014167;28;20052;-29
2023/07/27 09:33:44;;;;;;;3.78;1.20;;;;;;;29.05;39.35;96438.78;5013982;28;20461;-28
2023/07/27 09:36:10;;;;;;;3.92;1.13;;;;;;;29.09;39.57;96439.91;5013877;28;20393;-29
2023/07/27 09:38:35;;;;;;;3.30;1.40;;;;;;;29.02;38.50;96439.88;5013338;28;20021;-29
2023/07/27 09:41:08;;;;;;;4.97;1.60;;;;;;;29.00;37.08;96443.22;5013666;28;20033;-29
2023/07/27 09:43:41;;;;;;;4.10;1.70;;;;;;;29.03;38.19;96447.72;5021020;28;20497;-29
2023/07/27 09:46:06;;;;;;;2.30;1.25;;;;;;;28.99;38.43;96446.56;5018518;28;20128;-29
2023/07/27 09:48:34;;;;;;;2.97;1.73;;;;;;;28.94;38.08;96445.41;5013373;28;20150;-30
2023/07/27 09:51:01;;;;;;;2.80;1.38;;;;;;;29.08;36.06;96443.25;5013579;28;20067;-29
2023/07/27 09:53:30;;;;;;;2.03;1.33;;;;;;;29.04;36.49;96445.66;5012291;28;20382;-28
2023/07/27 09:55:56;;;;;;;4.93;1.60;;;;;;;29.06;35.62;96449.38;5013211;28;20021;-28
2023/07/27 09:58:22;;;;;;;2.47;1.38;;;;;;;29.09;34.76;96439.16;5013358;28;20022;-29
2023/07/27 10:00:48;;;;;;;2.72;1.33;;;;;;;29.11;35.70;96450.53;5019730;28;20133;-30
2023/07/27 10:03:14;;;;;;;3.13;1.35;;;;;;;29.04;35.08;96442.88;5012095;28;20508;-29
2023/07/27 10:05:41;;;;;;;3.70;1.77;;;;;;;29.02;35.10;96429.47;5013223;28;20030;-29
2023/07/27 10:08:07;;;;;;;2.95;1.40;;;;;;;29.06;34.10;96435.41;5013107;28;20014;-29
2023/07/27 10:10:32;;;;;;;3.90;1.30;;;;;;;29.29;34.40;96432.75;5012073;28;20068;-31
2023/07/27 10:13:03;;;;;;;1.60;1.35;;;;;;;29.20;33.83;96433.25;5013399;28;20029;-28
2023/07/27 10:15:29;;;;;;;2.28;1.20;;;;;;;29.03;34.09;96424.63;5013304;28;20022;-29
2023/07/27 10:17:59;;;;;;;2.72;1.42;;;;;;;29.20;34.50;96427.66;5013390;28;20037;-29
2023/07/27 10:20:30;;;;;;;3.10;1.20;;;;;;;29.13;33.70;96428.38;5013221;28;20021;-29
2023/07/27 10:23:29;;;;;;;2.58;1.23;;;;;;;29.20;33.10;96428.41;5013187;28;20381;-28
2023/07/27 10:26:00;;;;;;;2.95;1.05;;;;;;;29.14;33.42;96425.06;5013251;28;20044;-29
2023/07/27 10:28:49;;;;;;;2.30;1.35;;;;;;;29.24;33.06;96428.06;5013476;28;20029;-32
2023/07/27 10:31:20;;;;;;;4.00;1.08;;;;;;;29.26;32.06;96428.28;5013134;28;20040;-29
2023/07/27 10:33:52;;;;;;;3.75;1.10;;;;;;;29.20;31.53;96416.50;5013119;28;20162;-29
2023/07/27 10:36:19;;;;;;;2.72;1.35;;;;;;;29.32;32.91;96409.28;5013100;28;20026;-29
2023/07/27 10:38:53;;;;;;;2.58;1.33;;;;;;;29.17;32.41;96412.78;5013039;28;20022;-30
2023/07/27 10:41:25;;;;;;;2.05;1.38;;;;;;;29.16;33.41;96407.75;5012813;28;20030;-29
2023/07/27 10:44:08;;;;;;;3.05;1.27;;;;;;;29.28;33.39;96420.09;5011571;28;20088;-29
2023/07/27 10:46:58;;;;;;;2.67;1.50;;;;;;;29.32;32.37;96412.06;5019583;28;20049;-29
2023/07/27 10:49:23;;;;;;;3.13;1.10;;;;;;;29.31;32.32;96418.97;5019740;28;20053;-29
2023/07/27 10:51:49;;;;;;;4.10;1.50;;;;;;;29.27;32.26;96408.16;5016621;28;20470;-29
2023/07/27 10:54:14;;;;;;;2.42;1.40;;;;;;;29.29;32.11;96411.16;5016830;28;20434;-28
2023/07/27 10:56:41;;;;;;;1.70;1.40;;;;;;;29.40;32.66;96407.31;5016348;28;20029;-28
2023/07/27 10:59:12;;;;;;;2.78;1.30;;;;;;;29.31;32.16;96416.16;5016205;28;20025;-29
2023/07/27 11:01:37;;;;;;;2.92;1.30;;;;;;;29.41;32.70;96411.59;5016705;28;20457;-29
2023/07/27 11:04:05;;;;;;;3.97;1.20;;;;;;;29.46;32.12;96416.25;5016284;28;20076;-30
2023/07/27 11:06:30;;;;;;;2.38;1.67;;;;;;;29.41;32.52;96413.66;5016312;28;20441;-29
2023/07/27 11:08:56;;;;;;;2.65;1.25;;;;;;;29.43;32.80;96411.78;5016203;28;20033;-29
2023/07/27 11:11:24;;;;;;;3.65;1.63;;;;;;;29.43;32.99;96408.97;5016169;28;20077;-29
2023/07/27 11:13:50;;;;;;;3.90;1.65;;;;;;;29.37;32.58;96407.63;5016066;28;20022;-29
2023/07/27 11:16:16;;;;;;;1.70;1.40;;;;;;;29.63;32.96;96396.94;5014900;28;20022;-29
2023/07/27 11:18:41;;;;;;;2.58;1.25;;;;;;;29.56;32.37;96406.03;5015873;28;20029;-29
2023/07/27 11:21:08;;;;;;;2.38;1.40;;;;;;;29.60;32.94;96400.09;5016017;28;20025;-29
2023/07/27 11:24:02;;;;;;;2.78;1.23;;;;;;;29.46;32.99;96402.28;5015880;28;20022;-29
2023/07/27 11:26:28;;;;;;;2.13;1.33;;;;;;;29.46;33.61;96393.91;5015495;28;20034;-29
2023/07/27 11:28:55;;;;;;;4.30;1.58;;;;;;;29.58;33.08;96392.25;5016392;28;20084;-29
2023/07/27 11:31:21;;;;;;;2.38;1.33;;;;;;;29.45;33.24;96392.41;5015893;28;20094;-29
2023/07/27 11:33:46;;;;;;;3.50;1.48;;;;;;;29.65;33.24;96404.78;5015741;28;20088;-31